NEW EXCHEQUER-LK MCCLURE (EXC)

Elevation: 879' · MERCED R basin · Operator: Merced Irrigation District

Provisional data, subject to change.
Query executed Saturday at 5:16:32   clock

Select a sensor type for a plot of data.
Note: Reservoir Flows are daily averages.

Earlier

Date RES ELE    STORAGE    RES CHG    TOC STO    ABV TOC    OUTFLOW    INFLOW    PPT INC    TEMP MN    TEMP MX    TEMP AV    EVP PAN   
 FEET   AF   AF   AF   AF   CFS   CFS   INCHES   DEG F   DEG F   DEG F   INCHES  
05/26/2016 788.88 573967 547 843093 -269126 1467 1789 0.00 53 79 68 0.26
05/27/2016 789.18 575336 775 845504 -270168 1255 1946 0.00 61 85 73 0.38
05/28/2016 789.52 576890 867 848552 -271662 1563 2347 0.00 63 88 75 1419.00
05/29/2016 790.12 579639 1511 852144 -272505 1304 2690 0.00 66 89 78 0.45
05/30/2016 790.71 582352 1333 855827 -273475 1379 2747 0.00 64 92 78 0.40
05/31/2016 791.39 585491 1938 860241 -274750 1625 3208 0.00 68 95 81 1438.00
06/01/2016 792.26 589524 2548 865860 -276336 1507 3541 0.00 70 99 85 0.44
06/02/2016 793.04 593159 2468 871415 -278256 1668 3501 0.00 71 97 84 0.49
06/03/2016 793.90 597184 2524 876693 -279509 1296 3326 0.00 70 98 84 0.00
06/04/2016 794.67 600805 2349 882078 -281273 1566 3394 0.00 73 98 85 0.40
06/05/2016 795.23 603448 1745 887162 -283714 1871 3204 0.00 71 96 85 0.49
06/06/2016 795.86 606431 1893 891929 -286588 1500 3004 0.00 71 97 84 0.45
06/07/2016 796.32 608617 1568 827828 -287909 1794 2897 0.00 64 95 81 0.45
06/08/2016 796.93 611524 1953 832349 -289523 1383 2849 0.00 64 91 78 0.42
06/09/2016 797.42 613867 1386 836352 -222485 1341 2523 0.00 56 89 74 0.38
06/10/2016 797.80 615687 1676 838550 -222862 1283 2201 0.00 64 85 75 2292.00
06/11/2016 797.83 615831 336 839912 -224081 1602 1675 0.00 58 82 73 0.28
06/12/2016 798.10 617128 432 842002 -224874 1479 2133 0.00 -99 84 68 11599.00
06/13/2016 798.35 618330 1106 844250 -225920 1626 2233 0.00 61 87 75 0.41
06/14/2016 798.48 618957 867 845582 -226625 1339 1656 0.00 60 79 69 0.00
06/15/2016 798.40 618571 -386 846589 -228018 1646 1451 0.00 55 72 63 0.34
06/16/2016 798.24 617800 -530 847294 -229494 1649 1260 0.00 53 77 66 0.28
06/17/2016 798.09 617079 -576 847795 -230716 1496 1132 0.00 56 83 71 0.37
06/18/2016 797.93 616311 -816 848286 -231975 1513 1126 0.00 59 82 72 0.35
06/19/2016 797.75 615448 -1103 848905 -233457 1641 1206 0.00 60 93 78 0.35
06/20/2016 797.52 614345 -1295 849399 -235054 1684 1128 0.00 68 96 82 0.44
06/21/2016 797.45 614011 -335 850272 -236261 1535 1366 0.00 69 99 84 0.50
06/22/2016 797.39 612722 -432 851146 -238424 1513 1367 0.00 -99 97 76 11608.00
06/23/2016 797.36 613579 762 851789 -238210 1295 1222 0.00 66 93 80 0.00
06/24/2016 797.21 612862 -717 -- -- -- -- -- 65 89 78 0.48
06/25/2016 -- -- -- -- -- -- -- -- -- -- -- --

Later | Latest

Warning! This data is preliminary and subject to revision.

Show EXC Map | Plot EXC Data | 1 Month EXC Data | Real-Time EXC Data | EXC Info